sensor_id;sensor_type;location;lat;lon;timestamp;P1;durP1;ratioP1;P2;durP2;ratioP2
74229;SDS011;62589;12.568;99.958;2022-12-29T00:01:04;13.90;;;9.00;;
74229;SDS011;62589;12.568;99.958;2022-12-29T00:03:30;16.75;;;10.40;;
74229;SDS011;62589;12.568;99.958;2022-12-29T00:05:57;25.77;;;15.55;;
74229;SDS011;62589;12.568;99.958;2022-12-29T00:08:23;28.25;;;16.55;;
74229;SDS011;62589;12.568;99.958;2022-12-29T00:11:08;22.48;;;14.60;;
74229;SDS011;62589;12.568;99.958;2022-12-29T00:13:40;20.98;;;14.20;;
74229;SDS011;62589;12.568;99.958;2022-12-29T00:16:19;22.80;;;12.75;;
74229;SDS011;62589;12.568;99.958;2022-12-29T00:18:45;20.88;;;12.93;;
74229;SDS011;62589;12.568;99.958;2022-12-29T00:21:16;18.42;;;11.57;;
74229;SDS011;62589;12.568;99.958;2022-12-29T00:23:56;24.70;;;12.68;;
74229;SDS011;62589;12.568;99.958;2022-12-29T00:26:34;22.40;;;13.05;;
74229;SDS011;62589;12.568;99.958;2022-12-29T00:29:12;33.45;;;19.13;;
74229;SDS011;62589;12.568;99.958;2022-12-29T00:31:50;36.00;;;18.58;;
74229;SDS011;62589;12.568;99.958;2022-12-29T00:34:28;32.25;;;18.00;;
74229;SDS011;62589;12.568;99.958;2022-12-29T00:37:06;32.03;;;17.92;;
74229;SDS011;62589;12.568;99.958;2022-12-29T00:39:33;26.52;;;15.57;;
74229;SDS011;62589;12.568;99.958;2022-12-29T00:42:11;26.58;;;15.65;;
74229;SDS011;62589;12.568;99.958;2022-12-29T00:44:57;28.33;;;15.93;;
74229;SDS011;62589;12.568;99.958;2022-12-29T00:47:23;24.65;;;14.80;;
74229;SDS011;62589;12.568;99.958;2022-12-29T00:49:49;30.13;;;15.57;;
74229;SDS011;62589;12.568;99.958;2022-12-29T00:52:16;31.75;;;15.80;;
74229;SDS011;62589;12.568;99.958;2022-12-29T00:54:42;28.70;;;15.57;;
74229;SDS011;62589;12.568;99.958;2022-12-29T00:57:10;23.10;;;12.88;;
74229;SDS011;62589;12.568;99.958;2022-12-29T00:59:38;25.02;;;13.77;;
74229;SDS011;62589;12.568;99.958;2022-12-29T01:02:05;26.20;;;14.40;;
74229;SDS011;62589;12.568;99.958;2022-12-29T01:04:32;28.00;;;14.57;;
74229;SDS011;62589;12.568;99.958;2022-12-29T01:06:59;22.27;;;13.70;;
74229;SDS011;62589;12.568;99.958;2022-12-29T01:09:26;27.85;;;14.43;;
74229;SDS011;62589;12.568;99.958;2022-12-29T01:12:04;23.55;;;13.50;;
74229;SDS011;62589;12.568;99.958;2022-12-29T01:14:32;19.20;;;11.90;;
74229;SDS011;62589;12.568;99.958;2022-12-29T01:16:59;20.98;;;11.18;;
74229;SDS011;62589;12.568;99.958;2022-12-29T01:19:25;17.83;;;10.77;;
74229;SDS011;62589;12.568;99.958;2022-12-29T01:21:52;19.92;;;10.95;;
74229;SDS011;62589;12.568;99.958;2022-12-29T01:24:19;16.92;;;10.90;;
74229;SDS011;62589;12.568;99.958;2022-12-29T01:26:46;20.85;;;10.82;;
74229;SDS011;62589;12.568;99.958;2022-12-29T01:29:13;15.15;;;10.10;;
74229;SDS011;62589;12.568;99.958;2022-12-29T01:31:40;17.15;;;9.93;;
74229;SDS011;62589;12.568;99.958;2022-12-29T01:34:07;15.93;;;10.50;;
74229;SDS011;62589;12.568;99.958;2022-12-29T01:36:33;15.93;;;9.50;;
74229;SDS011;62589;12.568;99.958;2022-12-29T01:39:01;17.98;;;9.65;;
74229;SDS011;62589;12.568;99.958;2022-12-29T01:41:27;20.42;;;10.65;;
74229;SDS011;62589;12.568;99.958;2022-12-29T01:43:55;17.50;;;10.50;;
74229;SDS011;62589;12.568;99.958;2022-12-29T01:51:59;16.65;;;10.05;;
74229;SDS011;62589;12.568;99.958;2022-12-29T01:54:38;17.88;;;10.75;;
74229;SDS011;62589;12.568;99.958;2022-12-29T01:57:10;17.00;;;9.65;;
74229;SDS011;62589;12.568;99.958;2022-12-29T01:59:43;15.27;;;10.00;;
74229;SDS011;62589;12.568;99.958;2022-12-29T02:02:17;15.52;;;9.70;;
74229;SDS011;62589;12.568;99.958;2022-12-29T02:04:44;12.40;;;8.88;;
74229;SDS011;62589;12.568;99.958;2022-12-29T02:07:16;16.17;;;8.65;;
74229;SDS011;62589;12.568;99.958;2022-12-29T02:09:51;13.38;;;9.05;;
74229;SDS011;62589;12.568;99.958;2022-12-29T02:15:12;14.25;;;9.13;;
74229;SDS011;62589;12.568;99.958;2022-12-29T02:17:48;12.35;;;8.55;;
74229;SDS011;62589;12.568;99.958;2022-12-29T02:37:47;14.90;;;8.57;;
74229;SDS011;62589;12.568;99.958;2022-12-29T02:40:44;11.95;;;8.90;;
74229;SDS011;62589;12.568;99.958;2022-12-29T02:43:33;12.73;;;9.05;;
74229;SDS011;62589;12.568;99.958;2022-12-29T02:46:20;14.18;;;8.57;;
74229;SDS011;62589;12.568;99.958;2022-12-29T02:57:10;17.42;;;10.05;;
74229;SDS011;62589;12.568;99.958;2022-12-29T02:59:41;15.18;;;9.07;;
74229;SDS011;62589;12.568;99.958;2022-12-29T03:02:20;12.05;;;8.80;;
74229;SDS011;62589;12.568;99.958;2022-12-29T03:11:02;11.23;;;8.38;;
74229;SDS011;62589;12.568;99.958;2022-12-29T03:13:41;11.93;;;8.85;;
74229;SDS011;62589;12.568;99.958;2022-12-29T03:16:35;15.60;;;9.80;;
74229;SDS011;62589;12.568;99.958;2022-12-29T03:19:21;15.10;;;9.57;;
74229;SDS011;62589;12.568;99.958;2022-12-29T03:21:59;13.88;;;9.48;;
74229;SDS011;62589;12.568;99.958;2022-12-29T03:24:42;16.20;;;9.93;;
74229;SDS011;62589;12.568;99.958;2022-12-29T03:27:14;15.00;;;11.02;;
74229;SDS011;62589;12.568;99.958;2022-12-29T03:29:46;17.97;;;11.30;;
74229;SDS011;62589;12.568;99.958;2022-12-29T03:32:20;19.80;;;11.38;;
74229;SDS011;62589;12.568;99.958;2022-12-29T03:34:51;19.52;;;11.70;;
74229;SDS011;62589;12.568;99.958;2022-12-29T03:37:23;19.98;;;12.35;;
74229;SDS011;62589;12.568;99.958;2022-12-29T03:39:54;19.73;;;11.27;;
74229;SDS011;62589;12.568;99.958;2022-12-29T03:42:23;19.25;;;12.25;;
74229;SDS011;62589;12.568;99.958;2022-12-29T03:44:53;19.73;;;11.32;;
74229;SDS011;62589;12.568;99.958;2022-12-29T03:47:22;19.02;;;10.90;;
74229;SDS011;62589;12.568;99.958;2022-12-29T03:49:49;15.68;;;10.68;;
74229;SDS011;62589;12.568;99.958;2022-12-29T03:52:17;16.35;;;10.85;;
74229;SDS011;62589;12.568;99.958;2022-12-29T03:54:43;17.77;;;10.38;;
74229;SDS011;62589;12.568;99.958;2022-12-29T03:57:10;18.08;;;10.70;;
74229;SDS011;62589;12.568;99.958;2022-12-29T03:59:37;19.38;;;10.95;;
74229;SDS011;62589;12.568;99.958;2022-12-29T04:02:03;17.02;;;10.98;;
74229;SDS011;62589;12.568;99.958;2022-12-29T04:04:30;16.60;;;11.32;;
74229;SDS011;62589;12.568;99.958;2022-12-29T04:06:56;15.52;;;10.98;;
74229;SDS011;62589;12.568;99.958;2022-12-29T04:09:22;19.48;;;10.68;;
74229;SDS011;62589;12.568;99.958;2022-12-29T04:11:49;15.15;;;10.85;;
74229;SDS011;62589;12.568;99.958;2022-12-29T04:14:15;20.27;;;11.82;;
74229;SDS011;62589;12.568;99.958;2022-12-29T04:16:41;19.23;;;11.73;;
74229;SDS011;62589;12.568;99.958;2022-12-29T04:19:08;18.45;;;11.77;;
74229;SDS011;62589;12.568;99.958;2022-12-29T04:21:34;20.55;;;10.80;;
74229;SDS011;62589;12.568;99.958;2022-12-29T04:24:01;17.27;;;11.70;;
74229;SDS011;62589;12.568;99.958;2022-12-29T04:26:27;18.42;;;12.02;;
74229;SDS011;62589;12.568;99.958;2022-12-29T04:28:53;16.50;;;12.60;;
74229;SDS011;62589;12.568;99.958;2022-12-29T04:31:20;19.88;;;12.13;;
74229;SDS011;62589;12.568;99.958;2022-12-29T04:33:46;18.17;;;12.55;;
74229;SDS011;62589;12.568;99.958;2022-12-29T04:36:12;20.58;;;12.80;;
74229;SDS011;62589;12.568;99.958;2022-12-29T04:38:39;20.58;;;14.00;;
74229;SDS011;62589;12.568;99.958;2022-12-29T04:41:05;18.25;;;13.65;;
74229;SDS011;62589;12.568;99.958;2022-12-29T04:43:31;22.85;;;13.93;;
74229;SDS011;62589;12.568;99.958;2022-12-29T04:45:58;25.15;;;14.73;;
74229;SDS011;62589;12.568;99.958;2022-12-29T04:48:24;25.55;;;14.70;;
74229;SDS011;62589;12.568;99.958;2022-12-29T04:50:51;26.65;;;15.35;;
74229;SDS011;62589;12.568;99.958;2022-12-29T04:53:17;22.25;;;14.30;;
74229;SDS011;62589;12.568;99.958;2022-12-29T04:55:44;21.33;;;13.75;;
74229;SDS011;62589;12.568;99.958;2022-12-29T04:58:13;20.98;;;13.40;;
74229;SDS011;62589;12.568;99.958;2022-12-29T05:00:40;20.65;;;13.23;;
74229;SDS011;62589;12.568;99.958;2022-12-29T05:03:06;19.75;;;12.98;;
74229;SDS011;62589;12.568;99.958;2022-12-29T05:05:32;17.25;;;12.45;;
74229;SDS011;62589;12.568;99.958;2022-12-29T05:07:59;23.35;;;13.93;;
74229;SDS011;62589;12.568;99.958;2022-12-29T05:10:25;21.33;;;12.70;;
74229;SDS011;62589;12.568;99.958;2022-12-29T05:12:51;15.80;;;11.57;;
74229;SDS011;62589;12.568;99.958;2022-12-29T05:15:18;18.45;;;11.27;;
74229;SDS011;62589;12.568;99.958;2022-12-29T05:17:44;17.00;;;11.32;;
74229;SDS011;62589;12.568;99.958;2022-12-29T05:20:11;16.08;;;10.65;;
74229;SDS011;62589;12.568;99.958;2022-12-29T05:22:37;16.77;;;11.00;;
74229;SDS011;62589;12.568;99.958;2022-12-29T05:25:04;16.55;;;10.43;;
74229;SDS011;62589;12.568;99.958;2022-12-29T05:27:31;13.95;;;10.27;;
74229;SDS011;62589;12.568;99.958;2022-12-29T05:29:57;16.77;;;10.80;;
74229;SDS011;62589;12.568;99.958;2022-12-29T05:32:23;14.07;;;10.20;;
74229;SDS011;62589;12.568;99.958;2022-12-29T05:34:50;17.00;;;9.68;;
74229;SDS011;62589;12.568;99.958;2022-12-29T05:37:16;13.30;;;9.77;;
74229;SDS011;62589;12.568;99.958;2022-12-29T05:39:43;11.20;;;8.95;;
74229;SDS011;62589;12.568;99.958;2022-12-29T05:42:09;15.18;;;10.05;;
74229;SDS011;62589;12.568;99.958;2022-12-29T05:44:35;17.33;;;9.45;;
74229;SDS011;62589;12.568;99.958;2022-12-29T05:47:03;13.88;;;9.10;;
74229;SDS011;62589;12.568;99.958;2022-12-29T05:49:29;12.40;;;8.85;;
74229;SDS011;62589;12.568;99.958;2022-12-29T05:51:55;11.95;;;8.48;;
74229;SDS011;62589;12.568;99.958;2022-12-29T05:54:22;13.38;;;8.52;;
74229;SDS011;62589;12.568;99.958;2022-12-29T05:56:48;14.30;;;8.07;;
74229;SDS011;62589;12.568;99.958;2022-12-29T05:59:15;12.45;;;8.48;;
74229;SDS011;62589;12.568;99.958;2022-12-29T06:01:41;12.30;;;8.02;;
74229;SDS011;62589;12.568;99.958;2022-12-29T06:04:07;15.32;;;8.15;;
74229;SDS011;62589;12.568;99.958;2022-12-29T06:06:34;13.88;;;8.13;;
74229;SDS011;62589;12.568;99.958;2022-12-29T06:09:00;13.90;;;8.40;;
74229;SDS011;62589;12.568;99.958;2022-12-29T06:11:27;15.85;;;9.90;;
74229;SDS011;62589;12.568;99.958;2022-12-29T06:13:53;14.18;;;8.65;;
74229;SDS011;62589;12.568;99.958;2022-12-29T06:16:19;14.27;;;8.70;;
74229;SDS011;62589;12.568;99.958;2022-12-29T06:18:46;13.85;;;8.73;;
74229;SDS011;62589;12.568;99.958;2022-12-29T06:21:12;9.77;;;8.50;;
74229;SDS011;62589;12.568;99.958;2022-12-29T06:23:39;12.70;;;8.00;;
74229;SDS011;62589;12.568;99.958;2022-12-29T06:26:05;11.35;;;7.82;;
74229;SDS011;62589;12.568;99.958;2022-12-29T06:28:31;9.93;;;7.10;;
74229;SDS011;62589;12.568;99.958;2022-12-29T06:30:58;11.15;;;7.40;;
74229;SDS011;62589;12.568;99.958;2022-12-29T06:33:24;10.32;;;7.47;;
74229;SDS011;62589;12.568;99.958;2022-12-29T06:35:51;9.93;;;7.28;;
74229;SDS011;62589;12.568;99.958;2022-12-29T06:38:17;15.65;;;8.25;;
74229;SDS011;62589;12.568;99.958;2022-12-29T06:40:44;10.68;;;7.95;;
74229;SDS011;62589;12.568;99.958;2022-12-29T06:43:10;13.95;;;8.82;;
74229;SDS011;62589;12.568;99.958;2022-12-29T06:45:40;10.20;;;8.15;;
74229;SDS011;62589;12.568;99.958;2022-12-29T06:48:06;14.32;;;8.88;;
74229;SDS011;62589;12.568;99.958;2022-12-29T06:50:33;12.45;;;8.25;;
74229;SDS011;62589;12.568;99.958;2022-12-29T06:52:59;11.25;;;8.48;;
74229;SDS011;62589;12.568;99.958;2022-12-29T06:55:26;11.40;;;8.32;;
74229;SDS011;62589;12.568;99.958;2022-12-29T06:57:56;11.57;;;8.23;;
74229;SDS011;62589;12.568;99.958;2022-12-29T07:00:24;12.65;;;8.75;;
74229;SDS011;62589;12.568;99.958;2022-12-29T07:02:51;14.77;;;9.00;;
74229;SDS011;62589;12.568;99.958;2022-12-29T07:05:17;13.73;;;8.48;;
74229;SDS011;62589;12.568;99.958;2022-12-29T07:07:43;13.90;;;8.80;;
74229;SDS011;62589;12.568;99.958;2022-12-29T07:10:10;17.25;;;9.45;;
74229;SDS011;62589;12.568;99.958;2022-12-29T07:12:36;11.63;;;8.80;;
74229;SDS011;62589;12.568;99.958;2022-12-29T07:15:03;14.30;;;9.60;;
74229;SDS011;62589;12.568;99.958;2022-12-29T07:17:29;17.10;;;10.30;;
74229;SDS011;62589;12.568;99.958;2022-12-29T07:19:56;14.73;;;10.48;;
74229;SDS011;62589;12.568;99.958;2022-12-29T07:22:22;15.45;;;11.00;;
74229;SDS011;62589;12.568;99.958;2022-12-29T07:24:48;17.20;;;10.60;;
74229;SDS011;62589;12.568;99.958;2022-12-29T07:27:15;14.75;;;10.30;;
74229;SDS011;62589;12.568;99.958;2022-12-29T07:29:41;18.17;;;10.77;;
74229;SDS011;62589;12.568;99.958;2022-12-29T07:32:08;13.68;;;10.40;;
74229;SDS011;62589;12.568;99.958;2022-12-29T07:34:34;15.93;;;10.60;;
74229;SDS011;62589;12.568;99.958;2022-12-29T07:37:01;12.50;;;9.55;;
74229;SDS011;62589;12.568;99.958;2022-12-29T07:39:27;20.20;;;11.82;;
74229;SDS011;62589;12.568;99.958;2022-12-29T07:41:53;15.25;;;9.40;;
74229;SDS011;62589;12.568;99.958;2022-12-29T07:44:20;12.68;;;9.18;;
74229;SDS011;62589;12.568;99.958;2022-12-29T07:46:46;11.00;;;7.82;;
74229;SDS011;62589;12.568;99.958;2022-12-29T07:49:12;12.50;;;8.07;;
74229;SDS011;62589;12.568;99.958;2022-12-29T07:51:39;10.38;;;8.05;;
74229;SDS011;62589;12.568;99.958;2022-12-29T07:54:05;9.80;;;8.10;;
74229;SDS011;62589;12.568;99.958;2022-12-29T07:56:31;13.40;;;8.35;;
74229;SDS011;62589;12.568;99.958;2022-12-29T07:58:58;13.02;;;7.43;;
74229;SDS011;62589;12.568;99.958;2022-12-29T08:01:24;12.82;;;7.95;;
74229;SDS011;62589;12.568;99.958;2022-12-29T08:03:50;12.75;;;7.85;;
74229;SDS011;62589;12.568;99.958;2022-12-29T08:06:17;11.27;;;7.53;;
74229;SDS011;62589;12.568;99.958;2022-12-29T08:08:44;13.02;;;7.78;;
74229;SDS011;62589;12.568;99.958;2022-12-29T08:11:10;12.48;;;7.75;;
74229;SDS011;62589;12.568;99.958;2022-12-29T08:13:37;9.27;;;7.18;;
74229;SDS011;62589;12.568;99.958;2022-12-29T08:16:03;10.52;;;7.45;;
74229;SDS011;62589;12.568;99.958;2022-12-29T08:18:29;9.88;;;6.97;;
74229;SDS011;62589;12.568;99.958;2022-12-29T08:21:00;10.38;;;7.22;;
74229;SDS011;62589;12.568;99.958;2022-12-29T08:23:28;9.52;;;7.13;;
74229;SDS011;62589;12.568;99.958;2022-12-29T08:25:58;11.43;;;7.15;;
74229;SDS011;62589;12.568;99.958;2022-12-29T08:28:27;10.07;;;7.07;;
74229;SDS011;62589;12.568;99.958;2022-12-29T08:30:53;10.75;;;7.07;;
74229;SDS011;62589;12.568;99.958;2022-12-29T08:33:22;8.60;;;7.03;;
74229;SDS011;62589;12.568;99.958;2022-12-29T08:35:49;13.63;;;6.65;;
74229;SDS011;62589;12.568;99.958;2022-12-29T08:38:16;12.02;;;6.75;;
74229;SDS011;62589;12.568;99.958;2022-12-29T08:40:43;8.90;;;6.70;;
74229;SDS011;62589;12.568;99.958;2022-12-29T08:43:09;8.18;;;6.00;;
74229;SDS011;62589;12.568;99.958;2022-12-29T08:45:36;10.00;;;6.43;;
74229;SDS011;62589;12.568;99.958;2022-12-29T08:48:02;8.40;;;6.30;;
74229;SDS011;62589;12.568;99.958;2022-12-29T08:50:29;8.82;;;6.30;;
74229;SDS011;62589;12.568;99.958;2022-12-29T08:52:56;13.65;;;6.60;;
74229;SDS011;62589;12.568;99.958;2022-12-29T08:55:22;9.25;;;6.15;;
74229;SDS011;62589;12.568;99.958;2022-12-29T08:57:48;9.13;;;6.30;;
74229;SDS011;62589;12.568;99.958;2022-12-29T09:00:15;7.63;;;5.70;;
74229;SDS011;62589;12.568;99.958;2022-12-29T09:02:41;9.88;;;5.82;;
74229;SDS011;62589;12.568;99.958;2022-12-29T09:05:08;8.07;;;5.65;;
74229;SDS011;62589;12.568;99.958;2022-12-29T09:07:35;6.72;;;5.03;;
74229;SDS011;62589;12.568;99.958;2022-12-29T09:10:02;9.85;;;5.28;;
74229;SDS011;62589;12.568;99.958;2022-12-29T09:12:29;8.45;;;5.22;;
74229;SDS011;62589;12.568;99.958;2022-12-29T09:14:55;8.75;;;5.15;;
74229;SDS011;62589;12.568;99.958;2022-12-29T09:17:21;9.55;;;5.25;;
74229;SDS011;62589;12.568;99.958;2022-12-29T09:20:00;8.15;;;5.20;;
74229;SDS011;62589;12.568;99.958;2022-12-29T09:22:26;7.82;;;5.28;;
74229;SDS011;62589;12.568;99.958;2022-12-29T09:24:53;7.88;;;5.40;;
74229;SDS011;62589;12.568;99.958;2022-12-29T09:27:19;8.27;;;5.72;;
74229;SDS011;62589;12.568;99.958;2022-12-29T09:29:45;10.68;;;6.13;;
74229;SDS011;62589;12.568;99.958;2022-12-29T09:32:12;8.85;;;6.10;;
74229;SDS011;62589;12.568;99.958;2022-12-29T09:34:38;7.95;;;5.70;;
74229;SDS011;62589;12.568;99.958;2022-12-29T09:37:05;8.10;;;6.47;;
74229;SDS011;62589;12.568;99.958;2022-12-29T09:39:31;8.13;;;6.07;;
74229;SDS011;62589;12.568;99.958;2022-12-29T09:42:02;10.77;;;6.18;;
74229;SDS011;62589;12.568;99.958;2022-12-29T09:47:40;11.02;;;6.28;;
74229;SDS011;62589;12.568;99.958;2022-12-29T09:53:04;9.38;;;6.85;;
74229;SDS011;62589;12.568;99.958;2022-12-29T10:01:27;11.35;;;6.88;;
74229;SDS011;62589;12.568;99.958;2022-12-29T10:03:59;8.68;;;7.00;;
74229;SDS011;62589;12.568;99.958;2022-12-29T10:06:42;9.90;;;6.70;;
74229;SDS011;62589;12.568;99.958;2022-12-29T10:09:33;12.32;;;6.80;;
74229;SDS011;62589;12.568;99.958;2022-12-29T10:12:26;10.40;;;6.82;;
74229;SDS011;62589;12.568;99.958;2022-12-29T10:18:10;8.45;;;5.97;;
74229;SDS011;62589;12.568;99.958;2022-12-29T10:20:58;8.15;;;6.32;;
74229;SDS011;62589;12.568;99.958;2022-12-29T10:23:50;8.00;;;6.20;;
74229;SDS011;62589;12.568;99.958;2022-12-29T10:26:20;8.63;;;5.72;;
74229;SDS011;62589;12.568;99.958;2022-12-29T10:29:03;9.95;;;6.60;;
74229;SDS011;62589;12.568;99.958;2022-12-29T10:31:37;9.45;;;5.63;;
74229;SDS011;62589;12.568;99.958;2022-12-29T10:42:20;11.48;;;6.47;;
74229;SDS011;62589;12.568;99.958;2022-12-29T10:45:11;9.45;;;6.47;;
74229;SDS011;62589;12.568;99.958;2022-12-29T10:47:46;9.45;;;6.80;;
74229;SDS011;62589;12.568;99.958;2022-12-29T10:50:26;10.90;;;7.32;;
74229;SDS011;62589;12.568;99.958;2022-12-29T10:52:56;11.98;;;7.10;;
74229;SDS011;62589;12.568;99.958;2022-12-29T10:55:36;10.35;;;6.97;;
74229;SDS011;62589;12.568;99.958;2022-12-29T10:58:07;9.48;;;6.70;;
74229;SDS011;62589;12.568;99.958;2022-12-29T11:00:41;10.10;;;6.30;;
74229;SDS011;62589;12.568;99.958;2022-12-29T11:06:16;10.75;;;6.20;;
74229;SDS011;62589;12.568;99.958;2022-12-29T11:09:08;9.20;;;5.80;;
74229;SDS011;62589;12.568;99.958;2022-12-29T11:11:46;8.18;;;5.82;;
74229;SDS011;62589;12.568;99.958;2022-12-29T11:14:19;10.00;;;5.72;;
74229;SDS011;62589;12.568;99.958;2022-12-29T11:16:59;10.50;;;6.28;;
74229;SDS011;62589;12.568;99.958;2022-12-29T11:19:29;9.00;;;5.85;;
74229;SDS011;62589;12.568;99.958;2022-12-29T11:24:45;8.23;;;5.93;;
74229;SDS011;62589;12.568;99.958;2022-12-29T11:27:17;9.98;;;6.05;;
74229;SDS011;62589;12.568;99.958;2022-12-29T11:29:48;10.70;;;6.15;;
74229;SDS011;62589;12.568;99.958;2022-12-29T11:32:26;11.02;;;5.30;;
74229;SDS011;62589;12.568;99.958;2022-12-29T11:34:58;8.95;;;5.50;;
74229;SDS011;62589;12.568;99.958;2022-12-29T11:37:36;7.68;;;5.97;;
74229;SDS011;62589;12.568;99.958;2022-12-29T11:40:05;11.18;;;5.65;;
74229;SDS011;62589;12.568;99.958;2022-12-29T11:45:33;7.93;;;5.53;;
74229;SDS011;62589;12.568;99.958;2022-12-29T11:50:50;8.18;;;5.82;;
74229;SDS011;62589;12.568;99.958;2022-12-29T11:53:22;8.35;;;6.10;;
74229;SDS011;62589;12.568;99.958;2022-12-29T11:55:58;7.90;;;5.47;;
74229;SDS011;62589;12.568;99.958;2022-12-29T11:58:32;8.70;;;6.07;;
74229;SDS011;62589;12.568;99.958;2022-12-29T12:03:57;7.00;;;5.43;;
74229;SDS011;62589;12.568;99.958;2022-12-29T12:06:40;8.77;;;6.07;;
74229;SDS011;62589;12.568;99.958;2022-12-29T12:09:19;7.78;;;5.40;;
74229;SDS011;62589;12.568;99.958;2022-12-29T12:11:55;7.47;;;5.85;;
74229;SDS011;62589;12.568;99.958;2022-12-29T12:14:30;10.55;;;5.55;;
74229;SDS011;62589;12.568;99.958;2022-12-29T12:28:49;9.55;;;5.95;;
74229;SDS011;62589;12.568;99.958;2022-12-29T12:34:11;12.68;;;7.43;;
74229;SDS011;62589;12.568;99.958;2022-12-29T12:39:49;13.20;;;7.55;;
74229;SDS011;62589;12.568;99.958;2022-12-29T12:51:33;12.50;;;8.55;;
74229;SDS011;62589;12.568;99.958;2022-12-29T12:54:24;10.70;;;8.13;;
74229;SDS011;62589;12.568;99.958;2022-12-29T12:57:06;13.18;;;9.15;;
74229;SDS011;62589;12.568;99.958;2022-12-29T12:59:50;13.00;;;9.05;;
74229;SDS011;62589;12.568;99.958;2022-12-29T13:02:34;12.25;;;9.02;;
74229;SDS011;62589;12.568;99.958;2022-12-29T13:05:31;11.07;;;9.00;;
74229;SDS011;62589;12.568;99.958;2022-12-29T13:08:31;14.10;;;9.77;;
74229;SDS011;62589;12.568;99.958;2022-12-29T13:11:13;15.13;;;10.07;;
74229;SDS011;62589;12.568;99.958;2022-12-29T13:17:02;14.65;;;9.25;;
74229;SDS011;62589;12.568;99.958;2022-12-29T13:22:58;12.93;;;9.98;;
74229;SDS011;62589;12.568;99.958;2022-12-29T13:37:20;18.70;;;12.68;;
74229;SDS011;62589;12.568;99.958;2022-12-29T13:39:52;16.15;;;12.68;;
74229;SDS011;62589;12.568;99.958;2022-12-29T13:42:23;17.38;;;12.52;;
74229;SDS011;62589;12.568;99.958;2022-12-29T13:44:57;18.98;;;13.85;;
74229;SDS011;62589;12.568;99.958;2022-12-29T13:47:36;16.45;;;12.43;;
74229;SDS011;62589;12.568;99.958;2022-12-29T13:50:12;19.52;;;13.15;;
74229;SDS011;62589;12.568;99.958;2022-12-29T13:52:48;16.48;;;13.20;;
74229;SDS011;62589;12.568;99.958;2022-12-29T13:55:40;21.90;;;13.90;;
74229;SDS011;62589;12.568;99.958;2022-12-29T13:58:31;19.67;;;14.45;;
74229;SDS011;62589;12.568;99.958;2022-12-29T14:04:00;20.05;;;15.45;;
74229;SDS011;62589;12.568;99.958;2022-12-29T14:06:35;19.83;;;15.38;;
74229;SDS011;62589;12.568;99.958;2022-12-29T14:12:18;29.35;;;19.88;;
74229;SDS011;62589;12.568;99.958;2022-12-29T14:15:13;33.60;;;22.65;;
74229;SDS011;62589;12.568;99.958;2022-12-29T14:23:45;48.70;;;30.77;;
74229;SDS011;62589;12.568;99.958;2022-12-29T14:26:17;45.55;;;29.52;;
74229;SDS011;62589;12.568;99.958;2022-12-29T14:28:55;45.05;;;27.85;;
74229;SDS011;62589;12.568;99.958;2022-12-29T14:36:53;32.13;;;20.88;;
74229;SDS011;62589;12.568;99.958;2022-12-29T14:42:12;29.23;;;19.13;;
74229;SDS011;62589;12.568;99.958;2022-12-29T14:44:52;24.85;;;16.40;;
74229;SDS011;62589;12.568;99.958;2022-12-29T14:47:34;25.00;;;15.63;;
74229;SDS011;62589;12.568;99.958;2022-12-29T14:50:08;27.08;;;16.20;;
74229;SDS011;62589;12.568;99.958;2022-12-29T14:52:54;23.95;;;15.30;;
74229;SDS011;62589;12.568;99.958;2022-12-29T14:55:36;25.45;;;15.25;;
74229;SDS011;62589;12.568;99.958;2022-12-29T14:58:38;26.88;;;16.00;;
74229;SDS011;62589;12.568;99.958;2022-12-29T15:01:15;22.58;;;14.52;;
74229;SDS011;62589;12.568;99.958;2022-12-29T15:03:50;22.48;;;13.40;;
74229;SDS011;62589;12.568;99.958;2022-12-29T15:06:22;21.45;;;13.38;;
74229;SDS011;62589;12.568;99.958;2022-12-29T15:08:54;17.88;;;12.68;;
74229;SDS011;62589;12.568;99.958;2022-12-29T15:12:52;17.45;;;11.38;;
74229;SDS011;62589;12.568;99.958;2022-12-29T15:15:24;18.58;;;11.65;;
74229;SDS011;62589;12.568;99.958;2022-12-29T15:17:52;16.30;;;11.57;;
74229;SDS011;62589;12.568;99.958;2022-12-29T15:20:24;17.80;;;11.55;;
74229;SDS011;62589;12.568;99.958;2022-12-29T15:22:55;19.77;;;12.75;;
74229;SDS011;62589;12.568;99.958;2022-12-29T15:25:29;24.58;;;12.73;;
74229;SDS011;62589;12.568;99.958;2022-12-29T15:28:01;21.27;;;13.07;;
74229;SDS011;62589;12.568;99.958;2022-12-29T15:30:30;19.35;;;12.65;;
74229;SDS011;62589;12.568;99.958;2022-12-29T15:32:58;19.05;;;13.18;;
74229;SDS011;62589;12.568;99.958;2022-12-29T15:35:33;18.17;;;12.27;;
74229;SDS011;62589;12.568;99.958;2022-12-29T15:40:50;18.25;;;10.70;;
74229;SDS011;62589;12.568;99.958;2022-12-29T15:46:34;16.15;;;10.18;;
74229;SDS011;62589;12.568;99.958;2022-12-29T15:49:04;12.45;;;8.63;;
74229;SDS011;62589;12.568;99.958;2022-12-29T15:51:35;11.57;;;8.25;;
74229;SDS011;62589;12.568;99.958;2022-12-29T15:54:03;13.13;;;8.40;;
74229;SDS011;62589;12.568;99.958;2022-12-29T15:56:34;11.93;;;8.30;;
74229;SDS011;62589;12.568;99.958;2022-12-29T15:59:00;16.95;;;7.85;;
74229;SDS011;62589;12.568;99.958;2022-12-29T16:01:29;14.15;;;9.52;;
74229;SDS011;62589;12.568;99.958;2022-12-29T16:03:58;16.25;;;9.05;;
74229;SDS011;62589;12.568;99.958;2022-12-29T16:06:30;17.58;;;9.60;;
74229;SDS011;62589;12.568;99.958;2022-12-29T16:09:01;12.25;;;8.98;;
74229;SDS011;62589;12.568;99.958;2022-12-29T16:11:37;13.55;;;8.43;;
74229;SDS011;62589;12.568;99.958;2022-12-29T16:14:07;15.25;;;8.52;;
74229;SDS011;62589;12.568;99.958;2022-12-29T16:16:43;12.63;;;8.20;;
74229;SDS011;62589;12.568;99.958;2022-12-29T16:22:01;18.13;;;10.57;;
74229;SDS011;62589;12.568;99.958;2022-12-29T16:24:36;19.13;;;11.77;;
74229;SDS011;62589;12.568;99.958;2022-12-29T16:29:56;21.20;;;11.98;;
74229;SDS011;62589;12.568;99.958;2022-12-29T16:32:28;20.13;;;12.80;;
74229;SDS011;62589;12.568;99.958;2022-12-29T16:37:39;17.95;;;13.00;;
74229;SDS011;62589;12.568;99.958;2022-12-29T16:42:57;19.00;;;13.75;;
74229;SDS011;62589;12.568;99.958;2022-12-29T16:53:48;19.63;;;12.85;;
74229;SDS011;62589;12.568;99.958;2022-12-29T16:56:19;17.90;;;12.02;;
74229;SDS011;62589;12.568;99.958;2022-12-29T16:58:59;18.40;;;12.35;;
74229;SDS011;62589;12.568;99.958;2022-12-29T17:01:36;17.85;;;11.70;;
74229;SDS011;62589;12.568;99.958;2022-12-29T17:04:10;18.48;;;11.93;;
74229;SDS011;62589;12.568;99.958;2022-12-29T17:06:39;20.13;;;12.02;;
74229;SDS011;62589;12.568;99.958;2022-12-29T17:11:50;19.45;;;11.50;;
74229;SDS011;62589;12.568;99.958;2022-12-29T17:14:21;18.50;;;11.55;;
74229;SDS011;62589;12.568;99.958;2022-12-29T17:17:03;17.58;;;11.65;;
74229;SDS011;62589;12.568;99.958;2022-12-29T17:19:48;16.48;;;11.65;;
74229;SDS011;62589;12.568;99.958;2022-12-29T17:22:23;19.50;;;12.13;;
74229;SDS011;62589;12.568;99.958;2022-12-29T17:24:53;19.45;;;11.77;;
74229;SDS011;62589;12.568;99.958;2022-12-29T17:27:26;15.48;;;11.63;;
74229;SDS011;62589;12.568;99.958;2022-12-29T17:30:16;15.65;;;11.38;;
74229;SDS011;62589;12.568;99.958;2022-12-29T17:32:50;15.02;;;10.63;;
74229;SDS011;62589;12.568;99.958;2022-12-29T17:35:20;17.52;;;10.98;;